createdAt,value
2023-04-02T00:44:10.308Z,99707.34
2023-04-02T00:49:19.760Z,99687.63
2023-04-02T00:54:31.920Z,99857.09
2023-04-02T00:59:44.432Z,99779.38
2023-04-02T01:04:57.942Z,99854.00
2023-04-02T01:10:23.721Z,99790.91
2023-04-02T01:15:29.202Z,99788.66
2023-04-02T01:21:07.574Z,99915.41
2023-04-02T01:26:15.331Z,99700.81
2023-04-02T01:31:12.619Z,99844.66
2023-04-02T01:36:35.756Z,99775.19
2023-04-02T01:41:50.594Z,99844.59
2023-04-02T01:46:56.434Z,99871.31
2023-04-02T01:51:56.858Z,99921.44
2023-04-02T01:56:55.022Z,99781.94
2023-04-02T02:02:05.239Z,99932.09
2023-04-02T02:07:04.321Z,99855.44
2023-04-02T02:12:00.420Z,99933.31
2023-04-02T02:16:58.132Z,99681.00
2023-04-02T02:21:55.907Z,99932.59
2023-04-02T02:27:06.201Z,99940.28
2023-04-02T02:32:05.589Z,99932.03
2023-04-02T02:37:08.098Z,99919.03
2023-04-02T02:42:09.944Z,99901.44
2023-04-02T02:47:13.577Z,99869.34
2023-04-02T02:52:20.338Z,99704.63
2023-04-02T02:57:36.474Z,99707.84
2023-04-02T03:02:43.749Z,99803.56
2023-04-02T03:07:41.964Z,99749.63
2023-04-02T03:12:51.711Z,99764.53
2023-04-02T03:18:02.249Z,99878.81
2023-04-02T03:23:07.483Z,99877.38
2023-04-02T03:28:06.371Z,99713.59
2023-04-02T03:33:05.411Z,99845.69
2023-04-02T03:38:06.248Z,99976.41
2023-04-02T03:43:07.265Z,99977.00
2023-04-02T03:48:09.564Z,99750.81
2023-04-02T03:53:04.275Z,99896.06
2023-04-02T03:58:08.212Z,99799.16
2023-04-02T04:03:16.265Z,99792.03
2023-04-02T04:08:17.309Z,99880.81
2023-04-02T04:13:16.627Z,99917.22
2023-04-02T04:18:29.606Z,99794.78
2023-04-02T04:23:30.537Z,99971.63
2023-04-02T04:28:33.171Z,99942.31
2023-04-02T04:33:43.694Z,100048.31
2023-04-02T04:39:17.123Z,99909.91
2023-04-02T04:44:24.355Z,100056.84
2023-04-02T04:49:31.722Z,99980.50
2023-04-02T04:54:28.349Z,100009.13
2023-04-02T04:59:31.020Z,99949.53
2023-04-02T05:04:37.843Z,99890.25
2023-04-02T05:09:44.891Z,100039.16
2023-04-02T05:14:50.942Z,99978.47
2023-04-02T05:19:59.022Z,99901.41
2023-04-02T05:25:26.218Z,99877.28
2023-04-02T05:30:46.839Z,100070.84
2023-04-02T05:36:28.135Z,100128.66
2023-04-02T05:41:40.311Z,99860.97
2023-04-02T05:47:13.820Z,100064.47
2023-04-02T05:52:29.694Z,100147.00
2023-04-02T05:57:44.575Z,99952.28
2023-04-02T06:22:18.985Z,100120.72
2023-04-02T06:27:35.814Z,100120.47
2023-04-02T06:33:10.117Z,100057.34
2023-04-02T06:38:20.629Z,100178.44
2023-04-02T06:43:33.783Z,100016.38
2023-04-02T06:48:51.576Z,100194.91
2023-04-02T06:54:05.663Z,100154.03
2023-04-02T06:59:09.793Z,100163.75
2023-04-02T07:04:20.707Z,100206.19
2023-04-02T07:09:43.722Z,100223.13
2023-04-02T07:14:42.239Z,100036.75
2023-04-02T07:20:02.866Z,100152.84
2023-04-02T07:25:45.507Z,99957.78
2023-04-02T07:36:54.743Z,100236.53
2023-04-02T07:42:16.218Z,100054.59
2023-04-02T07:47:18.965Z,100059.31
2023-04-02T08:04:02.254Z,100142.56
2023-04-02T08:09:32.067Z,100031.38
2023-04-02T08:14:50.695Z,100247.81
2023-04-02T08:20:29.681Z,100152.13
2023-04-02T08:25:31.786Z,100179.13
2023-04-02T08:30:45.082Z,100214.75
2023-04-02T08:35:45.090Z,100197.91
2023-04-02T08:46:14.842Z,100097.28
2023-04-02T08:57:33.232Z,100157.81
2023-04-02T09:02:39.829Z,100279.34
2023-04-02T09:07:34.856Z,100139.72
2023-04-02T09:12:33.425Z,100272.59
2023-04-02T09:17:50.546Z,100218.88
2023-04-02T09:22:55.514Z,100191.97
2023-04-02T09:28:27.833Z,100244.09
2023-04-02T09:33:43.285Z,100127.16
2023-04-02T09:39:19.882Z,100276.28
2023-04-02T09:44:30.680Z,100285.97
2023-04-02T09:50:05.311Z,100290.38
2023-04-02T09:55:25.826Z,100293.41
2023-04-02T10:06:18.434Z,100299.28
2023-04-02T10:11:25.399Z,100288.59
2023-04-02T10:16:27.837Z,100306.22
2023-04-02T10:21:30.724Z,100115.66
2023-04-02T10:26:46.997Z,100156.09
2023-04-02T10:32:00.521Z,100229.59
2023-04-02T10:37:24.801Z,100269.09
2023-04-02T10:42:27.977Z,100299.94
2023-04-02T10:47:41.299Z,100261.16
2023-04-02T10:52:43.019Z,100202.00
2023-04-02T10:57:42.381Z,100088.72
2023-04-02T11:02:45.520Z,100219.72
2023-04-02T11:07:54.179Z,100197.22
2023-04-02T11:12:58.008Z,100083.44
2023-04-02T11:17:55.172Z,100181.34
2023-04-02T11:23:16.269Z,100185.06
2023-04-02T11:28:34.160Z,100230.56
2023-04-02T11:34:21.326Z,100170.88
2023-04-02T11:39:58.462Z,100231.72
2023-04-02T11:45:30.311Z,100261.09
2023-04-02T11:51:18.856Z,100107.59
2023-04-02T11:56:49.401Z,100211.00
2023-04-02T12:02:38.183Z,100162.63
2023-04-02T12:08:13.695Z,100180.91
2023-04-02T12:14:42.430Z,100061.75
2023-04-02T12:19:56.280Z,100190.00
2023-04-02T12:26:00.015Z,100145.97
2023-04-02T12:31:30.925Z,100239.72
2023-04-02T12:36:42.167Z,100103.47
2023-04-02T12:42:03.149Z,100241.84
2023-04-02T12:47:17.726Z,100235.31
2023-04-02T12:52:34.903Z,100233.97
2023-04-02T12:57:46.355Z,100202.16
2023-04-02T13:27:19.605Z,100145.50
2023-04-02T13:32:56.831Z,100195.34
2023-04-02T13:51:06.339Z,100062.09
2023-04-02T13:57:08.846Z,100069.25
2023-04-02T14:02:51.562Z,100200.78
2023-04-02T14:08:18.778Z,100018.31
2023-04-02T14:13:54.095Z,100200.69
2023-04-02T14:19:14.052Z,100210.69
2023-04-02T14:24:51.772Z,100191.59
2023-04-02T14:30:11.683Z,100131.50
2023-04-02T14:35:46.606Z,100096.41
2023-04-02T14:40:52.637Z,100113.25
2023-04-02T14:46:18.410Z,100098.53
2023-04-02T14:51:36.522Z,100203.72
2023-04-02T14:56:40.885Z,100206.97
2023-04-02T15:01:39.620Z,100152.03
2023-04-02T15:06:41.593Z,100158.94
2023-04-02T15:11:39.381Z,99984.59
2023-04-02T15:16:39.081Z,100163.22
2023-04-02T15:22:30.957Z,100225.47
2023-04-02T15:27:51.450Z,100141.78
2023-04-02T15:32:50.275Z,100243.44
2023-04-02T15:38:50.776Z,99998.59
2023-04-02T15:43:58.514Z,100187.53
2023-04-02T15:49:22.810Z,100029.28
2023-04-02T15:54:34.488Z,100219.16
2023-04-02T16:00:07.577Z,100261.19
2023-04-02T16:05:13.898Z,100272.84
2023-04-02T16:10:41.133Z,100051.22
2023-04-02T16:15:42.703Z,100278.34
2023-04-02T16:20:42.008Z,100235.06
2023-04-02T16:25:57.987Z,100174.78
2023-04-02T16:31:07.666Z,100298.44
2023-04-02T16:54:29.435Z,100147.13
2023-04-02T16:59:35.754Z,100128.84
2023-04-02T17:04:58.756Z,100290.94
2023-04-02T17:10:04.225Z,100271.00
2023-04-02T17:15:24.870Z,100244.00
2023-04-02T17:20:36.988Z,100140.44
2023-04-02T17:25:48.549Z,100088.91
2023-04-02T17:30:50.374Z,100161.28
2023-04-02T17:36:22.197Z,100173.97
2023-04-02T17:47:11.869Z,100327.41
2023-04-02T17:52:19.958Z,100336.63
2023-04-02T17:57:53.320Z,100357.22
2023-04-02T18:03:28.003Z,100153.66
2023-04-02T18:08:40.214Z,100323.81
2023-04-02T18:13:45.399Z,100250.56
2023-04-02T18:19:06.220Z,100265.19
2023-04-02T18:24:24.096Z,100392.44
2023-04-02T18:29:35.186Z,100330.28
2023-04-02T18:34:45.435Z,100346.47
2023-04-02T18:39:57.146Z,100263.34
2023-04-02T18:45:18.078Z,100327.09
2023-04-02T18:50:54.338Z,100284.88
2023-04-02T18:56:12.056Z,100328.56
2023-04-02T19:01:09.272Z,100326.31
2023-04-02T19:06:23.622Z,100282.84
2023-04-02T19:11:28.917Z,100321.75
2023-04-02T19:17:14.368Z,100169.56
2023-04-02T19:22:33.761Z,100256.16
2023-04-02T19:27:39.652Z,100360.66
2023-04-02T19:32:47.188Z,100270.50
2023-04-02T19:38:06.822Z,100389.88
2023-04-02T19:43:11.666Z,100447.78
2023-04-02T19:48:28.707Z,100263.91
2023-04-02T19:53:33.188Z,100333.81
2023-04-02T19:58:40.216Z,100209.66
2023-04-02T20:03:35.405Z,100330.28
2023-04-02T20:08:43.798Z,100193.16
2023-04-02T20:13:41.596Z,100435.00
2023-04-02T20:18:38.536Z,100337.66
2023-04-02T20:23:36.430Z,100424.06
2023-04-02T20:28:38.031Z,100334.97
2023-04-02T20:33:40.195Z,100461.06
2023-04-02T20:38:36.565Z,100263.41
2023-04-02T20:43:31.237Z,100262.50
2023-04-02T20:48:39.729Z,100254.19
2023-04-02T20:53:38.004Z,100468.72
2023-04-02T20:58:36.901Z,100393.38
2023-04-02T21:03:32.325Z,100466.09
2023-04-02T21:08:26.723Z,100292.69
2023-04-02T21:13:25.826Z,100285.69
2023-04-02T21:18:19.321Z,100235.06
2023-04-02T21:23:13.618Z,100380.09
2023-04-02T21:28:07.639Z,100283.69
2023-04-02T21:33:03.880Z,100338.22
2023-04-02T21:37:57.532Z,100300.31
2023-04-02T21:42:52.512Z,100416.28
2023-04-02T21:47:47.911Z,100363.97
2023-04-02T21:52:43.006Z,100422.47
2023-04-02T21:57:37.170Z,100453.75
2023-04-02T22:02:31.094Z,100429.41
2023-04-02T22:07:24.838Z,100473.81
2023-04-02T22:12:22.438Z,100488.53
2023-04-02T22:17:24.453Z,100384.66
2023-04-02T22:22:18.039Z,100376.94
2023-04-02T22:27:12.730Z,100377.78
2023-04-02T22:32:11.894Z,100434.38
2023-04-02T22:37:37.691Z,100496.25
2023-04-02T22:42:31.370Z,100306.78
2023-04-02T22:47:26.405Z,100288.75
2023-04-02T22:52:19.831Z,100404.59
2023-04-02T22:57:16.138Z,100276.41
2023-04-02T23:02:10.766Z,100448.59
2023-04-02T23:07:08.466Z,100284.81
2023-04-02T23:12:03.233Z,100523.16
2023-04-02T23:16:56.922Z,100314.47
2023-04-02T23:21:50.610Z,100322.03
2023-04-02T23:26:45.468Z,100256.06
2023-04-02T23:31:39.375Z,100498.34
2023-04-02T23:36:35.713Z,100268.41
2023-04-02T23:41:31.030Z,100420.44
2023-04-02T23:46:27.045Z,100406.41
2023-04-02T23:51:22.942Z,100419.75
2023-04-02T23:56:16.436Z,100329.03
